Time;durP1;ratioP1;P1;durP2;ratioP2;P2;SDS_P1;SDS_P2;PMS_P1;PMS_P2;Temp;Humidity;BMP_temperature;BMP_pressure;BME280_temperature;BME280_humidity;BME280_pressure;Samples;Min_cycle;Max_cycle;Signal;HPM_P1;HPM_P2
2021/12/22 00:01:58;;;;;;;13.60;11.57;;;;;;;-3.71;68.98;99483.41;4144523;28;20212;-46
2021/12/22 00:03:59;;;;;;;14.00;12.33;;;;;;;-3.77;68.88;99473.28;4128726;28;20748;-45
2021/12/22 00:06:02;;;;;;;14.43;13.13;;;;;;;-3.80;68.86;99473.56;4117594;28;20309;-45
2021/12/22 00:08:04;;;;;;;13.73;12.60;;;;;;;-3.84;68.92;99473.00;4121726;28;20627;-45
2021/12/22 00:10:06;;;;;;;15.40;14.27;;;;;;;-3.86;69.13;99466.09;4119403;28;20222;-45
2021/12/22 00:12:09;;;;;;;14.67;13.40;;;;;;;-3.90;69.07;99464.66;4099876;28;20207;-45
2021/12/22 00:14:11;;;;;;;14.13;12.97;;;;;;;-3.92;69.06;99459.47;4114014;28;20344;-45
2021/12/22 00:16:13;;;;;;;15.23;13.73;;;;;;;-3.93;68.74;99452.41;4114175;28;20231;-47
2021/12/22 00:18:15;;;;;;;15.00;13.70;;;;;;;-3.95;68.54;99458.91;4131394;28;20205;-46
2021/12/22 00:20:17;;;;;;;14.73;13.37;;;;;;;-3.99;68.74;99457.47;4115788;28;20210;-46
2021/12/22 00:22:18;;;;;;;14.60;13.47;;;;;;;-4.00;69.14;99450.44;4115454;28;20572;-46
2021/12/22 00:24:20;;;;;;;20.63;14.97;;;;;;;-4.01;69.25;99448.75;4116153;28;20206;-45
2021/12/22 00:26:22;;;;;;;15.90;14.20;;;;;;;-4.04;69.60;99446.34;4115456;28;20257;-45
2021/12/22 00:28:24;;;;;;;11.77;10.77;;;;;;;-4.03;69.28;99440.00;4115585;28;20214;-45
2021/12/22 00:30:27;;;;;;;14.13;12.73;;;;;;;-4.06;69.15;99451.81;4116700;28;20245;-45
2021/12/22 00:32:30;;;;;;;14.17;12.97;;;;;;;-4.07;69.17;99446.63;4115191;28;20206;-46
2021/12/22 00:34:33;;;;;;;12.57;11.50;;;;;;;-4.10;69.10;99449.53;4114017;28;20293;-45
2021/12/22 00:36:35;;;;;;;14.93;12.50;;;;;;;-4.11;69.36;99448.72;4130178;28;20395;-46
2021/12/22 00:38:37;;;;;;;16.47;13.03;;;;;;;-4.14;69.13;99443.63;4116075;28;20213;-46
2021/12/22 00:40:39;;;;;;;13.33;12.23;;;;;;;-4.18;68.90;99438.69;4133275;28;20298;-45
2021/12/22 00:42:41;;;;;;;17.10;15.33;;;;;;;-4.21;68.78;99439.00;4132981;28;20752;-45
2021/12/22 00:44:46;;;;;;;25.30;16.97;;;;;;;-4.22;68.98;99445.28;4130809;28;20267;-46
2021/12/22 00:46:48;;;;;;;27.90;17.20;;;;;;;-4.27;69.04;99442.19;4130111;28;20591;-46
2021/12/22 00:48:52;;;;;;;21.53;17.70;;;;;;;-4.29;69.30;99441.47;4128517;28;20220;-46
2021/12/22 00:50:54;;;;;;;16.67;14.87;;;;;;;-4.34;68.85;99449.06;4115018;28;20238;-46
2021/12/22 00:52:56;;;;;;;16.73;14.97;;;;;;;-4.32;69.18;99452.44;4131027;28;20213;-46
2021/12/22 00:54:57;;;;;;;15.47;13.83;;;;;;;-4.29;69.29;99461.00;4117877;28;20285;-46
2021/12/22 00:57:05;;;;;;;18.30;14.27;;;;;;;-4.32;68.73;99452.44;4130962;28;20284;-46
2021/12/22 00:59:06;;;;;;;20.30;15.00;;;;;;;-4.27;69.08;99458.22;4112384;28;20217;-47
2021/12/22 01:01:08;;;;;;;20.10;15.03;;;;;;;-4.29;69.23;99454.81;4129385;28;20731;-45
2021/12/22 01:03:10;;;;;;;17.57;15.63;;;;;;;-4.31;69.17;99448.78;4127885;28;20207;-47
2021/12/22 01:05:14;;;;;;;16.67;13.90;;;;;;;-4.32;68.97;99455.97;4130423;28;20222;-46
2021/12/22 01:07:16;;;;;;;16.20;14.60;;;;;;;-4.35;68.97;99450.03;4097997;28;20234;-47
2021/12/22 01:09:18;;;;;;;17.03;14.33;;;;;;;-4.43;68.73;99452.50;4115093;28;20254;-46
2021/12/22 01:11:20;;;;;;;15.90;14.40;;;;;;;-4.43;68.86;99449.84;4112749;28;20206;-45
2021/12/22 01:13:22;;;;;;;19.90;15.43;;;;;;;-4.42;68.77;99454.19;4118117;28;20229;-47
2021/12/22 01:15:25;;;;;;;20.37;16.27;;;;;;;-4.37;68.84;99462.66;4114131;28;20222;-45
2021/12/22 01:17:34;;;;;;;20.43;16.43;;;;;;;-4.37;68.98;99457.31;4132214;28;20206;-45
2021/12/22 01:22:20;;;;;;;15.67;14.17;;;;;;;-4.37;68.96;99474.19;4133222;28;20210;-48
2021/12/22 01:24:31;;;;;;;15.83;13.20;;;;;;;-4.39;68.69;99480.66;4131811;28;20225;-45
2021/12/22 01:26:34;;;;;;;17.37;15.63;;;;;;;-4.42;68.79;99487.09;4144151;28;20710;-47
2021/12/22 01:28:42;;;;;;;22.03;15.20;;;;;;;-4.48;68.60;99481.47;4117211;28;20234;-46
2021/12/22 01:30:48;;;;;;;17.10;15.40;;;;;;;-4.56;68.52;99489.25;4114799;28;20210;-46
2021/12/22 01:32:51;;;;;;;17.03;15.30;;;;;;;-4.54;68.77;99487.31;4128361;28;20302;-45
2021/12/22 01:34:53;;;;;;;17.83;16.10;;;;;;;-4.60;68.81;99483.34;4130684;28;20208;-46
2021/12/22 01:36:55;;;;;;;16.33;14.67;;;;;;;-4.63;68.73;99485.41;4131187;28;20229;-46
2021/12/22 01:38:57;;;;;;;17.53;15.57;;;;;;;-4.62;68.72;99490.63;4130469;28;20209;-45
2021/12/22 01:40:58;;;;;;;15.57;13.93;;;;;;;-4.57;68.57;99482.22;4115019;28;20739;-46
2021/12/22 01:43:02;;;;;;;15.43;13.93;;;;;;;-4.60;68.91;99493.19;4116973;28;20662;-45
2021/12/22 01:50:39;;;;;;;13.00;11.83;;;;;;;-4.68;68.76;99487.66;4115637;28;20207;-46
2021/12/22 01:52:41;;;;;;;12.67;11.57;;;;;;;-4.72;68.96;99484.41;4113356;28;20810;-47
2021/12/22 01:54:48;;;;;;;13.67;12.33;;;;;;;-4.67;69.08;99494.69;4129776;28;20202;-47
2021/12/22 01:56:51;;;;;;;14.23;13.00;;;;;;;-4.64;69.39;99502.41;4114725;28;20344;-45
2021/12/22 01:58:56;;;;;;;20.00;13.47;;;;;;;-4.64;69.46;99497.09;4111814;28;20297;-45
2021/12/22 02:01:00;;;;;;;13.00;11.47;;;;;;;-4.65;69.17;99490.06;4112276;28;20253;-45
2021/12/22 02:03:02;;;;;;;14.03;12.60;;;;;;;-4.67;69.30;99502.69;4124719;28;20242;-45
2021/12/22 02:05:04;;;;;;;15.13;11.30;;;;;;;-4.64;69.59;99499.75;4128425;28;20214;-45
2021/12/22 02:07:06;;;;;;;12.47;11.40;;;;;;;-4.62;69.84;99500.47;4112377;28;20234;-45
2021/12/22 02:09:14;;;;;;;11.83;10.70;;;;;;;-4.61;69.82;99496.84;4128988;28;20743;-45
2021/12/22 02:11:17;;;;;;;12.47;11.43;;;;;;;-4.60;70.00;99503.88;4116863;28;20234;-46
2021/12/22 02:13:28;;;;;;;13.20;11.50;;;;;;;-4.62;69.72;99495.13;4112315;28;20213;-47
2021/12/22 02:15:33;;;;;;;11.13;10.13;;;;;;;-4.64;69.45;99502.41;4118372;28;20426;-46
2021/12/22 02:17:36;;;;;;;13.77;10.77;;;;;;;-4.65;69.83;99500.72;4114315;28;20209;-46
2021/12/22 02:19:39;;;;;;;11.43;10.63;;;;;;;-4.61;70.00;99491.50;4145967;28;20873;-46
2021/12/22 02:21:47;;;;;;;12.77;11.67;;;;;;;-4.62;70.04;99489.78;4130790;28;20237;-46
2021/12/22 02:23:48;;;;;;;12.33;10.33;;;;;;;-4.63;70.22;99488.09;4115465;28;20217;-46
2021/12/22 02:25:56;;;;;;;12.80;11.60;;;;;;;-4.62;69.95;99487.09;4145915;28;20519;-46
2021/12/22 02:27:58;;;;;;;10.47;9.57;;;;;;;-4.64;69.95;99491.75;4128714;28;20221;-46
2021/12/22 02:30:03;;;;;;;12.97;11.83;;;;;;;-4.57;69.94;99485.75;4114894;28;20305;-44
2021/12/22 02:32:20;;;;;;;11.07;10.13;;;;;;;-4.58;69.64;99476.06;4130809;28;20245;-45
2021/12/22 02:34:22;;;;;;;11.90;10.90;;;;;;;-4.63;69.74;99472.06;4129443;28;20245;-48
2021/12/22 02:36:28;;;;;;;11.57;10.73;;;;;;;-4.58;69.39;99475.19;4095760;28;20749;-45
2021/12/22 02:38:35;;;;;;;11.47;10.57;;;;;;;-4.67;69.48;99474.16;4113135;28;20206;-45
2021/12/22 02:40:37;;;;;;;12.83;11.63;;;;;;;-4.72;69.59;99467.53;4099211;28;20817;-45
2021/12/22 02:42:39;;;;;;;10.83;9.53;;;;;;;-4.76;69.66;99468.75;4115863;28;20301;-45
2021/12/22 02:44:41;;;;;;;10.80;10.00;;;;;;;-4.76;69.72;99477.63;4114208;28;20218;-45
2021/12/22 02:46:43;;;;;;;11.10;10.00;;;;;;;-4.74;69.96;99477.50;4114336;28;20226;-48
2021/12/22 02:48:45;;;;;;;11.17;10.27;;;;;;;-4.76;69.68;99482.97;4115695;28;21059;-44
2021/12/22 02:50:46;;;;;;;12.43;9.90;;;;;;;-4.75;69.74;99473.97;4112852;28;20226;-47
2021/12/22 02:53:10;;;;;;;10.67;9.87;;;;;;;-4.73;69.54;99471.19;4130768;28;20225;-45
2021/12/22 02:55:12;;;;;;;10.83;9.93;;;;;;;-4.72;69.56;99467.53;4113377;28;20207;-46
2021/12/22 02:57:37;;;;;;;10.57;9.43;;;;;;;-4.76;69.28;99466.97;4145305;28;20249;-46
2021/12/22 03:00:04;;;;;;;11.07;10.17;;;;;;;-4.77;69.27;99453.72;4128414;28;20248;-45
2021/12/22 03:04:19;;;;;;;13.37;12.27;;;;;;;-4.77;69.31;99469.75;4129567;28;20265;-45
2021/12/22 03:06:32;;;;;;;13.43;11.43;;;;;;;-4.80;69.17;99470.84;4112797;28;20980;-45
2021/12/22 03:08:34;;;;;;;13.13;11.93;;;;;;;-4.81;69.09;99457.66;4130151;28;20217;-45
2021/12/22 03:10:36;;;;;;;12.63;11.70;;;;;;;-4.84;68.73;99457.91;4112789;28;20238;-45
2021/12/22 03:12:39;;;;;;;16.60;11.30;;;;;;;-4.90;69.04;99453.94;4114521;28;20237;-46
2021/12/22 03:14:41;;;;;;;13.67;10.63;;;;;;;-4.96;68.95;99448.28;4126976;28;20213;-45
2021/12/22 03:16:43;;;;;;;11.10;10.13;;;;;;;-5.01;69.00;99450.50;4110721;28;20237;-46
2021/12/22 03:18:45;;;;;;;12.00;10.93;;;;;;;-5.05;69.00;99449.06;4112293;28;20230;-45
2021/12/22 03:20:54;;;;;;;11.67;10.70;;;;;;;-5.05;69.24;99451.72;4118891;28;20205;-46
2021/12/22 03:22:56;;;;;;;10.57;9.70;;;;;;;-5.02;69.39;99448.78;4114178;28;20203;-46
2021/12/22 03:24:57;;;;;;;11.80;10.80;;;;;;;-5.00;69.26;99449.53;4128547;28;20210;-45
2021/12/22 03:27:02;;;;;;;11.93;11.03;;;;;;;-4.99;69.10;99448.56;4116730;28;20230;-45
2021/12/22 03:29:04;;;;;;;11.07;10.27;;;;;;;-4.98;68.92;99455.56;4116195;28;20221;-45
2021/12/22 03:31:06;;;;;;;12.20;11.13;;;;;;;-5.01;69.06;99450.50;4132619;28;20210;-45
2021/12/22 03:33:08;;;;;;;11.93;10.93;;;;;;;-5.08;68.95;99462.69;4130938;28;20205;-45
2021/12/22 03:35:16;;;;;;;10.77;9.97;;;;;;;-5.15;69.07;99466.81;4130458;28;20210;-45
2021/12/22 03:37:17;;;;;;;10.60;9.23;;;;;;;-5.14;68.98;99457.84;4114896;28;20206;-45
2021/12/22 03:39:20;;;;;;;10.83;9.93;;;;;;;-5.15;68.87;99459.66;4115653;28;20206;-46
2021/12/22 03:41:21;;;;;;;13.67;10.73;;;;;;;-5.18;68.87;99459.06;4147846;28;20570;-46
2021/12/22 03:43:23;;;;;;;12.73;11.53;;;;;;;-5.20;68.98;99455.69;4132388;28;20214;-45
2021/12/22 03:45:25;;;;;;;11.67;10.57;;;;;;;-5.20;68.82;99450.38;4119189;28;20260;-45
2021/12/22 03:47:27;;;;;;;11.90;10.80;;;;;;;-5.18;68.82;99453.75;4116372;28;20701;-46
2021/12/22 03:49:28;;;;;;;13.43;12.20;;;;;;;-5.24;68.98;99448.91;4116100;28;20234;-45
2021/12/22 03:51:30;;;;;;;13.07;11.90;;;;;;;-5.26;69.01;99445.53;4132638;28;20233;-45
2021/12/22 03:53:32;;;;;;;14.23;13.00;;;;;;;-5.30;68.87;99444.09;4115034;28;20667;-46
2021/12/22 03:55:33;;;;;;;13.93;12.63;;;;;;;-5.18;68.86;99448.41;4114453;28;20539;-46
2021/12/22 03:57:35;;;;;;;13.40;12.30;;;;;;;-5.22;69.01;99452.28;4100852;28;20294;-45
2021/12/22 03:59:37;;;;;;;14.17;12.77;;;;;;;-5.24;68.93;99448.09;4116107;28;20207;-45
2021/12/22 04:01:39;;;;;;;14.37;13.23;;;;;;;-5.30;69.01;99452.09;4152448;28;20217;-46
2021/12/22 04:03:44;;;;;;;20.37;13.90;;;;;;;-5.33;69.01;99448.84;4130433;28;20216;-45
2021/12/22 04:05:46;;;;;;;14.80;13.30;;;;;;;-5.35;69.13;99446.28;4114031;28;20631;-46
2021/12/22 04:07:48;;;;;;;14.17;12.80;;;;;;;-5.43;69.50;99451.44;4115328;28;20221;-45
2021/12/22 04:09:52;;;;;;;13.70;12.30;;;;;;;-5.38;69.31;99459.91;4100255;28;20220;-45
2021/12/22 04:11:54;;;;;;;18.10;14.23;;;;;;;-5.38;69.39;99456.38;4130261;28;20209;-45
2021/12/22 04:13:56;;;;;;;14.43;12.77;;;;;;;-5.39;68.90;99454.69;4117357;28;20217;-44
2021/12/22 04:15:58;;;;;;;13.93;12.00;;;;;;;-5.40;68.92;99459.19;4130853;28;20237;-45
2021/12/22 04:18:00;;;;;;;12.63;11.40;;;;;;;-5.41;68.96;99462.84;4130688;28;20205;-47
2021/12/22 04:20:01;;;;;;;13.17;11.77;;;;;;;-5.42;68.78;99454.94;4115003;28;20210;-44
2021/12/22 04:22:04;;;;;;;16.90;13.07;;;;;;;-5.43;69.09;99459.44;4131388;28;20233;-46
2021/12/22 04:24:07;;;;;;;13.63;12.23;;;;;;;-5.40;69.12;99448.53;4131487;28;20257;-45
2021/12/22 04:26:12;;;;;;;13.63;12.30;;;;;;;-5.43;69.01;99451.44;4115737;28;20227;-45
2021/12/22 04:28:14;;;;;;;18.43;12.93;;;;;;;-5.47;68.87;99446.47;4113385;28;20261;-47
2021/12/22 04:30:16;;;;;;;17.57;14.00;;;;;;;-5.43;69.04;99446.09;4119068;28;20214;-46
2021/12/22 04:32:17;;;;;;;17.67;12.83;;;;;;;-5.42;68.80;99445.13;4116717;28;20214;-45
2021/12/22 04:34:19;;;;;;;13.53;11.13;;;;;;;-5.42;69.06;99444.28;4130208;28;20268;-46
2021/12/22 04:36:21;;;;;;;12.27;11.10;;;;;;;-5.42;69.16;99434.47;4118840;28;20652;-45
2021/12/22 04:38:23;;;;;;;12.67;11.40;;;;;;;-5.43;69.06;99440.75;4134331;28;20356;-45
2021/12/22 04:40:25;;;;;;;15.03;11.63;;;;;;;-5.43;69.18;99443.44;4115373;28;20203;-46
2021/12/22 04:42:27;;;;;;;18.00;12.13;;;;;;;-5.38;68.98;99443.91;4116400;28;20206;-47
2021/12/22 04:44:29;;;;;;;12.50;11.00;;;;;;;-5.40;68.98;99448.53;4131656;28;20758;-46
2021/12/22 04:46:30;;;;;;;10.43;9.40;;;;;;;-5.41;68.97;99441.50;4113355;28;20262;-46
2021/12/22 04:48:35;;;;;;;13.47;12.03;;;;;;;-5.47;68.87;99447.34;4116922;28;20221;-46
2021/12/22 04:50:37;;;;;;;11.13;10.37;;;;;;;-5.49;68.84;99433.28;4129863;28;20297;-45
2021/12/22 04:53:08;;;;;;;11.87;10.77;;;;;;;-5.49;68.85;99443.13;4113764;28;20235;-46
2021/12/22 04:55:03;;;;;;;13.10;11.43;;;;;;;-5.59;68.72;99439.50;4131588;28;20237;-45
2021/12/22 04:57:05;;;;;;;12.57;11.23;;;;;;;-5.63;68.93;99435.41;4112993;28;20211;-45
2021/12/22 04:59:07;;;;;;;12.70;11.57;;;;;;;-5.60;68.96;99433.34;4115699;28;20198;-45
2021/12/22 05:01:09;;;;;;;11.63;10.63;;;;;;;-5.60;68.89;99443.13;4116400;28;20206;-45
2021/12/22 05:03:11;;;;;;;11.40;10.50;;;;;;;-5.63;68.82;99438.91;4134278;28;20237;-45
2021/12/22 05:05:12;;;;;;;10.97;10.07;;;;;;;-5.63;68.82;99441.56;4132065;28;20214;-46
2021/12/22 05:07:14;;;;;;;13.57;12.03;;;;;;;-5.69;68.94;99435.91;4114687;28;20636;-46
2021/12/22 05:09:16;;;;;;;12.43;10.27;;;;;;;-5.66;68.92;99436.50;4110601;28;20237;-49
2021/12/22 05:11:17;;;;;;;11.80;10.90;;;;;;;-5.67;68.85;99433.97;4127639;28;20729;-45
2021/12/22 05:13:19;;;;;;;11.80;10.80;;;;;;;-5.67;68.93;99445.47;4115935;28;20221;-45
2021/12/22 05:15:23;;;;;;;10.60;9.60;;;;;;;-5.67;68.95;99444.63;4116151;28;20793;-46
2021/12/22 05:17:38;;;;;;;11.90;11.00;;;;;;;-5.64;68.95;99439.06;4129500;28;20202;-45
2021/12/22 05:19:40;;;;;;;11.67;10.70;;;;;;;-5.67;68.72;99445.47;4114359;28;20233;-45
2021/12/22 05:21:43;;;;;;;12.63;11.67;;;;;;;-5.72;68.58;99439.69;4133510;28;20716;-46
2021/12/22 05:23:45;;;;;;;11.77;10.57;;;;;;;-5.72;68.92;99445.00;4145228;28;20660;-45
2021/12/22 05:25:46;;;;;;;12.97;11.83;;;;;;;-5.75;68.68;99452.41;4135322;28;20579;-46
2021/12/22 05:27:48;;;;;;;11.93;10.77;;;;;;;-5.78;68.81;99441.97;4132092;28;20675;-46
2021/12/22 05:29:50;;;;;;;13.23;11.93;;;;;;;-5.70;68.73;99443.06;4115890;28;20234;-46
2021/12/22 05:31:54;;;;;;;13.20;11.90;;;;;;;-5.75;68.56;99442.56;4116423;28;20211;-44
2021/12/22 05:33:57;;;;;;;15.17;13.77;;;;;;;-5.80;68.70;99444.81;4113572;28;20206;-45
2021/12/22 05:35:58;;;;;;;15.97;13.40;;;;;;;-5.80;68.75;99436.84;4115487;28;20225;-45
2021/12/22 05:38:00;;;;;;;16.00;14.63;;;;;;;-5.81;68.95;99443.13;4113597;28;20218;-46
2021/12/22 05:40:03;;;;;;;15.30;13.73;;;;;;;-5.83;68.73;99446.91;4114974;28;20217;-45
2021/12/22 05:42:05;;;;;;;16.13;14.67;;;;;;;-5.80;69.00;99439.50;4130081;28;20364;-45
2021/12/22 05:44:07;;;;;;;20.97;14.37;;;;;;;-5.80;69.04;99442.16;4130520;28;20293;-45
2021/12/22 05:46:09;;;;;;;17.10;14.50;;;;;;;-5.64;68.71;99447.88;4114736;28;20231;-45
2021/12/22 05:48:11;;;;;;;19.30;14.67;;;;;;;-5.70;68.62;99444.88;4112230;28;20265;-44
2021/12/22 05:50:13;;;;;;;21.37;16.00;;;;;;;-5.74;68.56;99449.63;4131719;28;20214;-45
2021/12/22 05:52:15;;;;;;;18.07;15.93;;;;;;;-5.78;68.64;99442.84;4131016;28;20202;-45
2021/12/22 05:54:17;;;;;;;23.23;16.07;;;;;;;-5.74;68.80;99438.97;4129056;28;20246;-45
2021/12/22 05:56:18;;;;;;;18.07;14.47;;;;;;;-5.75;68.72;99436.41;4131117;28;20635;-45
2021/12/22 05:58:20;;;;;;;16.50;15.03;;;;;;;-5.77;69.07;99439.19;4100069;28;20219;-45
2021/12/22 06:00:22;;;;;;;15.13;13.73;;;;;;;-5.77;68.93;99444.53;4114685;28;20257;-45
2021/12/22 06:02:24;;;;;;;16.23;14.53;;;;;;;-5.78;69.07;99450.84;4097805;28;20242;-45
2021/12/22 06:04:26;;;;;;;14.93;13.43;;;;;;;-5.79;69.07;99449.16;4113658;28;20217;-45
2021/12/22 06:06:28;;;;;;;14.80;13.60;;;;;;;-5.79;68.97;99443.00;4111960;28;20258;-45
2021/12/22 06:08:29;;;;;;;14.10;12.87;;;;;;;-5.81;68.89;99448.47;4131726;28;20262;-45
2021/12/22 06:10:34;;;;;;;13.60;11.93;;;;;;;-5.82;68.93;99449.41;4115702;28;20675;-45
2021/12/22 06:12:36;;;;;;;13.90;12.67;;;;;;;-5.84;69.05;99448.69;4129874;28;20203;-45
2021/12/22 06:14:37;;;;;;;14.97;13.47;;;;;;;-5.86;69.38;99450.66;4143904;28;20209;-45
2021/12/22 06:16:39;;;;;;;16.30;14.60;;;;;;;-5.82;69.03;99456.56;4131192;28;20691;-45
2021/12/22 06:18:45;;;;;;;18.63;15.07;;;;;;;-5.80;69.20;99459.94;4116073;28;20230;-45
2021/12/22 06:20:47;;;;;;;13.07;11.13;;;;;;;-5.78;69.16;99472.16;4114318;28;20249;-45
2021/12/22 06:22:49;;;;;;;12.63;11.63;;;;;;;-5.81;69.32;99472.44;4115766;28;20234;-44
2021/12/22 06:24:50;;;;;;;13.07;11.97;;;;;;;-5.83;69.07;99477.03;4130513;28;20264;-44
2021/12/22 06:26:52;;;;;;;12.47;11.47;;;;;;;-5.82;69.26;99468.06;4129541;28;20245;-45
2021/12/22 06:28:54;;;;;;;14.50;13.17;;;;;;;-5.83;69.50;99471.69;4113375;28;20234;-45
2021/12/22 06:30:55;;;;;;;14.23;12.93;;;;;;;-5.83;69.33;99470.88;4114467;28;20203;-45
2021/12/22 06:32:57;;;;;;;13.70;12.33;;;;;;;-5.82;69.38;99473.38;4127569;28;20665;-46
2021/12/22 06:34:59;;;;;;;13.23;11.93;;;;;;;-5.82;69.35;99468.06;4114799;28;20309;-45
2021/12/22 06:37:01;;;;;;;13.37;12.13;;;;;;;-5.81;69.45;99484.91;4131317;28;20365;-46
2021/12/22 06:39:03;;;;;;;13.63;12.43;;;;;;;-5.84;69.50;99475.34;4128378;28;20727;-46
2021/12/22 06:41:06;;;;;;;14.87;11.40;;;;;;;-5.84;69.39;99475.34;4129206;28;20656;-47
2021/12/22 06:43:08;;;;;;;13.20;12.00;;;;;;;-5.85;69.56;99478.97;4110517;28;20274;-46
2021/12/22 06:45:11;;;;;;;13.33;12.03;;;;;;;-5.87;69.52;99488.06;4114664;28;20230;-45
2021/12/22 06:47:13;;;;;;;16.00;12.50;;;;;;;-5.86;69.40;99487.94;4113012;28;20719;-45
2021/12/22 06:49:14;;;;;;;14.00;12.70;;;;;;;-5.87;69.29;99496.91;4115190;28;20265;-45
2021/12/22 06:51:16;;;;;;;12.77;11.67;;;;;;;-5.84;69.25;99491.31;4129179;28;20685;-45
2021/12/22 06:53:18;;;;;;;13.47;12.33;;;;;;;-5.91;69.32;99490.13;4128182;28;20210;-45
2021/12/22 06:55:19;;;;;;;12.87;11.70;;;;;;;-5.87;69.37;99490.72;4111894;28;20856;-46
2021/12/22 06:57:22;;;;;;;13.20;12.10;;;;;;;-5.85;69.31;99494.09;4119273;28;20211;-45
2021/12/22 06:59:24;;;;;;;13.93;11.93;;;;;;;-5.88;69.42;99489.88;4112072;28;20677;-45
2021/12/22 07:01:25;;;;;;;12.23;11.23;;;;;;;-5.90;69.35;99485.66;4127248;28;20210;-47
2021/12/22 07:03:28;;;;;;;13.53;12.40;;;;;;;-5.90;69.48;99496.31;4109775;28;20218;-45
2021/12/22 07:05:30;;;;;;;14.00;12.60;;;;;;;-5.91;69.49;99490.13;4130120;28;20300;-44
2021/12/22 07:07:32;;;;;;;33.17;12.43;;;;;;;-5.91;69.15;99495.47;4098508;28;20277;-45
2021/12/22 07:09:33;;;;;;;12.90;11.77;;;;;;;-5.91;69.33;99495.47;4116083;28;20674;-46
2021/12/22 07:11:36;;;;;;;13.67;12.47;;;;;;;-5.93;69.46;99489.41;4129735;28;20202;-46
2021/12/22 07:13:41;;;;;;;14.90;13.60;;;;;;;-5.93;69.61;99486.75;4142317;28;20257;-47
2021/12/22 07:15:43;;;;;;;14.23;13.13;;;;;;;-5.94;69.51;99484.19;4126628;28;20232;-45
2021/12/22 07:17:47;;;;;;;14.23;12.93;;;;;;;-5.91;69.40;99495.47;4130854;28;20210;-45
2021/12/22 07:19:50;;;;;;;13.83;12.60;;;;;;;-5.91;69.23;99492.78;4143129;28;20632;-44
2021/12/22 07:21:53;;;;;;;17.73;13.60;;;;;;;-5.90;69.62;99494.47;4125056;28;20304;-46
2021/12/22 07:23:55;;;;;;;13.70;12.30;;;;;;;-5.86;69.35;99495.09;4123448;28;20572;-45
2021/12/22 07:25:57;;;;;;;16.37;13.43;;;;;;;-5.86;69.30;99493.28;4113550;28;20309;-46
2021/12/22 07:27:59;;;;;;;13.10;12.20;;;;;;;-5.91;69.23;99494.59;4142068;28;20327;-46
2021/12/22 07:30:01;;;;;;;13.60;12.50;;;;;;;-5.95;69.14;99502.00;4110393;28;20343;-45
2021/12/22 07:32:03;;;;;;;14.00;12.87;;;;;;;-5.91;69.02;99487.47;4127955;28;20244;-45
2021/12/22 07:34:24;;;;;;;14.23;12.93;;;;;;;-5.94;69.07;99479.75;4144250;28;20209;-46
2021/12/22 07:36:26;;;;;;;16.90;11.93;;;;;;;-5.93;69.05;99481.44;4145866;28;20233;-46
2021/12/22 07:38:42;;;;;;;14.07;12.67;;;;;;;-5.94;69.02;99485.06;4131679;28;20210;-44
2021/12/22 07:40:45;;;;;;;14.33;13.00;;;;;;;-5.92;69.06;99493.75;4132148;28;20210;-47
2021/12/22 07:42:48;;;;;;;19.87;13.17;;;;;;;-5.88;69.18;99492.53;4125446;28;20257;-45
2021/12/22 07:44:49;;;;;;;13.97;12.70;;;;;;;-5.86;69.01;99487.94;4127978;28;20225;-46
2021/12/22 07:46:51;;;;;;;14.07;12.97;;;;;;;-5.82;69.16;99484.03;4142210;28;20237;-46
2021/12/22 07:48:53;;;;;;;14.87;13.37;;;;;;;-5.82;69.03;99483.22;4127984;28;20210;-45
2021/12/22 07:50:55;;;;;;;21.47;13.57;;;;;;;-5.80;69.10;99487.44;4138753;28;20233;-46
2021/12/22 07:52:59;;;;;;;15.13;13.73;;;;;;;-5.80;69.02;99482.13;4145229;28;20232;-47
2021/12/22 07:55:02;;;;;;;18.47;16.20;;;;;;;-5.83;70.29;99482.34;4126987;28;20217;-45
2021/12/22 07:57:04;;;;;;;18.30;14.83;;;;;;;-5.80;69.89;99486.59;4142836;28;20240;-45
2021/12/22 07:59:05;;;;;;;19.90;15.63;;;;;;;-5.73;70.05;99487.75;4142716;28;20198;-45
2021/12/22 08:01:08;;;;;;;18.73;16.80;;;;;;;-5.70;69.89;99482.19;4128599;28;20213;-45
2021/12/22 08:03:11;;;;;;;17.53;15.73;;;;;;;-5.69;69.57;99484.72;4128675;28;20268;-47
2021/12/22 08:05:33;;;;;;;18.90;15.73;;;;;;;-5.66;69.73;99478.28;4144027;28;20324;-46
2021/12/22 08:07:35;;;;;;;17.40;16.03;;;;;;;-5.65;69.88;99486.16;4131268;28;20214;-45
2021/12/22 08:09:37;;;;;;;16.40;14.50;;;;;;;-5.65;69.92;99485.31;4127480;28;20264;-46
2021/12/22 08:11:38;;;;;;;18.83;16.73;;;;;;;-5.60;69.79;99489.31;4147152;28;20612;-47
2021/12/22 08:13:40;;;;;;;21.30;17.57;;;;;;;-5.58;69.80;99486.50;4130435;28;20217;-44
2021/12/22 08:15:43;;;;;;;19.33;15.67;;;;;;;-5.55;69.74;99487.09;4116764;28;20819;-45
2021/12/22 08:17:45;;;;;;;20.37;18.23;;;;;;;-5.57;69.88;99489.03;4132209;28;20205;-46
2021/12/22 08:19:48;;;;;;;19.43;16.30;;;;;;;-5.49;69.84;99486.59;4130122;28;20206;-46
2021/12/22 08:21:50;;;;;;;19.57;17.63;;;;;;;-5.36;69.87;99481.94;4148059;28;20209;-45
2021/12/22 08:23:52;;;;;;;17.20;15.57;;;;;;;-4.94;70.29;99489.84;4163604;28;20240;-45
2021/12/22 08:25:54;;;;;;;19.50;17.80;;;;;;;-4.46;69.85;99474.16;4128669;28;20364;-46
2021/12/22 08:27:55;;;;;;;17.67;15.77;;;;;;;-4.19;68.57;99477.09;4145812;28;21098;-46
2021/12/22 08:29:58;;;;;;;18.90;16.13;;;;;;;-3.78;68.05;99483.13;4145482;28;20586;-45
2021/12/22 08:32:00;;;;;;;18.80;16.97;;;;;;;-3.22;66.68;99486.00;4145015;28;20715;-45
2021/12/22 08:34:03;;;;;;;17.17;15.43;;;;;;;-2.77;65.85;99487.13;4128365;28;20224;-45
2021/12/22 08:40:46;;;;;;;17.63;15.83;;;;;;;-1.93;61.98;99479.00;4142904;28;20625;-45
2021/12/22 08:42:50;;;;;;;18.77;16.77;;;;;;;-2.12;62.15;99484.44;4129113;28;20680;-48
2021/12/22 08:44:52;;;;;;;17.13;15.53;;;;;;;-2.46;62.44;99480.59;4116510;28;20233;-45
2021/12/22 08:46:55;;;;;;;18.47;16.17;;;;;;;-2.86;62.79;99482.66;4114287;28;20221;-47
2021/12/22 08:48:57;;;;;;;17.83;15.30;;;;;;;-3.05;63.54;99482.66;4146071;28;20212;-47
2021/12/22 08:50:59;;;;;;;18.33;16.63;;;;;;;-3.32;64.52;99475.34;4122783;28;20336;-47
2021/12/22 08:53:01;;;;;;;17.50;15.80;;;;;;;-3.39;64.77;99468.00;4132882;28;20217;-47
2021/12/22 08:55:04;;;;;;;16.07;14.37;;;;;;;-3.43;64.62;99471.91;4114808;28;20218;-45
2021/12/22 08:57:08;;;;;;;17.53;15.67;;;;;;;-3.52;64.98;99472.75;4147122;28;20267;-47
2021/12/22 08:59:11;;;;;;;16.57;14.80;;;;;;;-3.51;65.16;99463.75;4111971;28;20262;-44
2021/12/22 09:01:13;;;;;;;17.47;15.77;;;;;;;-3.54;65.86;99461.38;4126972;28;20247;-46
2021/12/22 09:03:15;;;;;;;15.70;14.30;;;;;;;-3.52;65.90;99462.06;4130732;28;20268;-45
2021/12/22 09:05:21;;;;;;;16.77;15.17;;;;;;;-3.49;66.05;99459.09;4126256;28;20245;-44
2021/12/22 09:07:23;;;;;;;17.00;15.60;;;;;;;-3.52;66.41;99462.06;4130851;28;20209;-47
2021/12/22 09:09:25;;;;;;;17.33;15.87;;;;;;;-3.43;66.53;99466.56;4130009;28;20860;-44
2021/12/22 09:11:27;;;;;;;20.67;18.80;;;;;;;-3.48;67.08;99458.97;4130310;28;20301;-45
2021/12/22 09:13:29;;;;;;;23.50;21.57;;;;;;;-3.60;69.02;99459.25;4115095;28;20207;-46
2021/12/22 09:15:31;;;;;;;20.43;18.43;;;;;;;-3.53;68.89;99465.72;4142741;28;20747;-44
2021/12/22 09:17:33;;;;;;;19.27;17.53;;;;;;;-3.41;67.90;99459.28;4128400;28;20202;-45
2021/12/22 09:19:34;;;;;;;22.53;19.83;;;;;;;-3.56;70.10;99460.66;4130833;28;20193;-45
2021/12/22 09:21:37;;;;;;;20.03;18.53;;;;;;;-3.40;68.86;99463.63;4113949;28;20277;-45
2021/12/22 09:23:39;;;;;;;20.50;18.50;;;;;;;-3.36;69.38;99457.88;4125786;28;20210;-45
2021/12/22 09:25:44;;;;;;;21.73;18.17;;;;;;;-3.36;69.32;99462.34;4109290;28;20250;-47
2021/12/22 09:27:46;;;;;;;20.13;18.43;;;;;;;-3.25;69.40;99470.25;4129688;28;20664;-47
2021/12/22 09:29:48;;;;;;;19.97;18.17;;;;;;;-3.17;69.40;99473.06;4111370;28;20258;-47
2021/12/22 09:31:51;;;;;;;19.40;17.70;;;;;;;-3.14;69.46;99478.16;4126607;28;20249;-47
2021/12/22 09:33:53;;;;;;;18.23;15.07;;;;;;;-3.14;70.01;99473.63;4144742;28;20229;-44
2021/12/22 09:35:55;;;;;;;21.27;19.03;;;;;;;-3.03;69.66;99472.63;4145869;28;20269;-44
2021/12/22 09:37:57;;;;;;;18.63;16.83;;;;;;;-2.94;69.95;99461.94;4147038;28;20209;-45
2021/12/22 09:39:59;;;;;;;18.53;16.83;;;;;;;-2.90;70.11;99465.16;4128101;28;20209;-45
2021/12/22 09:42:00;;;;;;;18.80;16.80;;;;;;;-2.96;71.28;99463.06;4130057;28;20248;-44